sensor_id;sensor_type;location;lat;lon;timestamp;temperature;humidity
837;DHT22;400;53.550;9.932;2024-02-16T00:01:02;13.30;99.90
837;DHT22;400;53.550;9.932;2024-02-16T00:03:29;13.30;99.90
837;DHT22;400;53.550;9.932;2024-02-16T00:05:56;13.30;99.90
837;DHT22;400;53.550;9.932;2024-02-16T00:08:23;13.30;99.90
837;DHT22;400;53.550;9.932;2024-02-16T00:10:50;13.30;99.90
837;DHT22;400;53.550;9.932;2024-02-16T00:13:17;13.30;99.90
837;DHT22;400;53.550;9.932;2024-02-16T00:15:45;13.30;99.90
837;DHT22;400;53.550;9.932;2024-02-16T00:18:13;13.20;99.90
837;DHT22;400;53.550;9.932;2024-02-16T00:20:40;13.20;99.90
837;DHT22;400;53.550;9.932;2024-02-16T00:23:07;13.20;99.90
837;DHT22;400;53.550;9.932;2024-02-16T00:25:34;13.20;99.90
837;DHT22;400;53.550;9.932;2024-02-16T00:28:02;13.20;99.90
837;DHT22;400;53.550;9.932;2024-02-16T00:30:29;13.20;99.90
837;DHT22;400;53.550;9.932;2024-02-16T00:32:56;13.20;99.90
837;DHT22;400;53.550;9.932;2024-02-16T00:35:24;13.20;99.90
837;DHT22;400;53.550;9.932;2024-02-16T00:37:51;13.20;99.90
837;DHT22;400;53.550;9.932;2024-02-16T00:40:18;13.20;99.90
837;DHT22;400;53.550;9.932;2024-02-16T00:42:45;13.20;99.90
837;DHT22;400;53.550;9.932;2024-02-16T00:45:12;13.20;99.90
837;DHT22;400;53.550;9.932;2024-02-16T00:47:39;13.20;99.90
837;DHT22;400;53.550;9.932;2024-02-16T00:50:07;13.10;99.90
837;DHT22;400;53.550;9.932;2024-02-16T00:52:36;13.20;99.90
837;DHT22;400;53.550;9.932;2024-02-16T00:55:04;13.10;99.90
837;DHT22;400;53.550;9.932;2024-02-16T00:57:31;13.10;99.90
837;DHT22;400;53.550;9.932;2024-02-16T00:59:59;13.10;99.90
837;DHT22;400;53.550;9.932;2024-02-16T01:02:27;13.10;99.90
837;DHT22;400;53.550;9.932;2024-02-16T01:04:54;13.10;99.90
837;DHT22;400;53.550;9.932;2024-02-16T01:07:27;13.00;99.90
837;DHT22;400;53.550;9.932;2024-02-16T01:09:55;13.00;99.90
837;DHT22;400;53.550;9.932;2024-02-16T01:12:23;13.00;99.90
837;DHT22;400;53.550;9.932;2024-02-16T01:14:49;13.00;99.90
837;DHT22;400;53.550;9.932;2024-02-16T01:17:16;13.00;99.90
837;DHT22;400;53.550;9.932;2024-02-16T01:19:43;13.00;99.90
837;DHT22;400;53.550;9.932;2024-02-16T01:22:11;13.00;99.90
837;DHT22;400;53.550;9.932;2024-02-16T01:24:38;12.90;99.90
837;DHT22;400;53.550;9.932;2024-02-16T01:27:06;12.90;99.90
837;DHT22;400;53.550;9.932;2024-02-16T01:29:33;13.00;99.90
837;DHT22;400;53.550;9.932;2024-02-16T01:32:00;13.00;99.90
837;DHT22;400;53.550;9.932;2024-02-16T01:34:28;12.90;99.90
837;DHT22;400;53.550;9.932;2024-02-16T01:36:55;13.00;99.90
837;DHT22;400;53.550;9.932;2024-02-16T01:39:22;13.00;99.90
837;DHT22;400;53.550;9.932;2024-02-16T01:41:49;12.90;99.90
837;DHT22;400;53.550;9.932;2024-02-16T01:44:17;12.90;99.90
837;DHT22;400;53.550;9.932;2024-02-16T01:46:44;13.00;99.90
837;DHT22;400;53.550;9.932;2024-02-16T01:49:12;12.90;99.90
837;DHT22;400;53.550;9.932;2024-02-16T01:51:41;12.90;99.90
837;DHT22;400;53.550;9.932;2024-02-16T01:54:10;13.00;99.90
837;DHT22;400;53.550;9.932;2024-02-16T01:56:37;12.90;97.50
837;DHT22;400;53.550;9.932;2024-02-16T01:59:05;12.90;99.40
837;DHT22;400;53.550;9.932;2024-02-16T02:01:33;12.90;96.50
837;DHT22;400;53.550;9.932;2024-02-16T02:04:00;12.90;99.90
837;DHT22;400;53.550;9.932;2024-02-16T02:06:27;12.90;99.90
837;DHT22;400;53.550;9.932;2024-02-16T02:08:54;12.90;99.90
837;DHT22;400;53.550;9.932;2024-02-16T02:11:21;12.90;99.90
837;DHT22;400;53.550;9.932;2024-02-16T02:13:48;12.90;99.90
837;DHT22;400;53.550;9.932;2024-02-16T02:16:16;12.90;97.20
837;DHT22;400;53.550;9.932;2024-02-16T02:18:46;12.90;96.10
837;DHT22;400;53.550;9.932;2024-02-16T02:21:14;12.90;91.90
837;DHT22;400;53.550;9.932;2024-02-16T02:23:44;12.80;93.80
837;DHT22;400;53.550;9.932;2024-02-16T02:26:14;12.90;92.30
837;DHT22;400;53.550;9.932;2024-02-16T02:28:42;12.80;92.60
837;DHT22;400;53.550;9.932;2024-02-16T02:31:09;12.80;80.10
837;DHT22;400;53.550;9.932;2024-02-16T02:33:36;12.80;95.80
837;DHT22;400;53.550;9.932;2024-02-16T02:36:04;12.80;77.80
837;DHT22;400;53.550;9.932;2024-02-16T02:38:31;12.80;94.70
837;DHT22;400;53.550;9.932;2024-02-16T02:41:00;12.80;87.40
837;DHT22;400;53.550;9.932;2024-02-16T02:43:29;12.80;81.90
837;DHT22;400;53.550;9.932;2024-02-16T02:45:56;12.80;77.00
837;DHT22;400;53.550;9.932;2024-02-16T02:48:23;12.80;92.10
837;DHT22;400;53.550;9.932;2024-02-16T02:50:50;12.80;91.20
837;DHT22;400;53.550;9.932;2024-02-16T02:53:17;12.80;78.70
837;DHT22;400;53.550;9.932;2024-02-16T02:55:44;12.80;92.00
837;DHT22;400;53.550;9.932;2024-02-16T02:58:12;12.80;90.40
837;DHT22;400;53.550;9.932;2024-02-16T03:00:39;12.80;87.80
837;DHT22;400;53.550;9.932;2024-02-16T03:03:06;12.80;88.70
837;DHT22;400;53.550;9.932;2024-02-16T03:05:33;12.90;85.50
837;DHT22;400;53.550;9.932;2024-02-16T03:08:00;12.90;79.20
837;DHT22;400;53.550;9.932;2024-02-16T03:10:28;12.80;52.40
837;DHT22;400;53.550;9.932;2024-02-16T03:13:00;12.80;60.10
837;DHT22;400;53.550;9.932;2024-02-16T03:15:28;12.80;66.00
837;DHT22;400;53.550;9.932;2024-02-16T03:17:56;12.80;74.10
837;DHT22;400;53.550;9.932;2024-02-16T03:20:22;12.80;75.90
837;DHT22;400;53.550;9.932;2024-02-16T03:22:49;12.80;65.00
837;DHT22;400;53.550;9.932;2024-02-16T03:25:16;12.80;64.20
837;DHT22;400;53.550;9.932;2024-02-16T03:27:43;12.80;55.00
837;DHT22;400;53.550;9.932;2024-02-16T03:30:10;12.80;43.50
837;DHT22;400;53.550;9.932;2024-02-16T03:32:39;12.80;55.40
837;DHT22;400;53.550;9.932;2024-02-16T03:35:06;12.80;54.60
837;DHT22;400;53.550;9.932;2024-02-16T03:37:34;12.80;44.70
837;DHT22;400;53.550;9.932;2024-02-16T03:40:01;12.80;47.10
837;DHT22;400;53.550;9.932;2024-02-16T03:42:27;12.80;47.10
837;DHT22;400;53.550;9.932;2024-02-16T03:44:55;12.80;43.90
837;DHT22;400;53.550;9.932;2024-02-16T03:47:22;12.70;28.20
837;DHT22;400;53.550;9.932;2024-02-16T03:49:51;12.80;41.70
837;DHT22;400;53.550;9.932;2024-02-16T03:52:18;12.80;22.70
837;DHT22;400;53.550;9.932;2024-02-16T03:54:45;12.70;27.00
837;DHT22;400;53.550;9.932;2024-02-16T03:57:14;12.70;21.50
837;DHT22;400;53.550;9.932;2024-02-16T03:59:42;12.70;18.60
837;DHT22;400;53.550;9.932;2024-02-16T04:02:09;12.70;23.00
837;DHT22;400;53.550;9.932;2024-02-16T04:04:36;12.80;24.10
837;DHT22;400;53.550;9.932;2024-02-16T04:07:04;12.80;24.30
837;DHT22;400;53.550;9.932;2024-02-16T04:09:32;12.80;13.70
837;DHT22;400;53.550;9.932;2024-02-16T04:12:00;12.80;19.00
837;DHT22;400;53.550;9.932;2024-02-16T04:14:26;12.80;24.40
837;DHT22;400;53.550;9.932;2024-02-16T04:16:53;12.80;17.90
837;DHT22;400;53.550;9.932;2024-02-16T04:19:24;12.80;10.90
837;DHT22;400;53.550;9.932;2024-02-16T04:21:50;12.80;6.30
837;DHT22;400;53.550;9.932;2024-02-16T04:24:18;12.80;3.20
837;DHT22;400;53.550;9.932;2024-02-16T04:26:45;12.80;2.40
837;DHT22;400;53.550;9.932;2024-02-16T04:29:13;12.80;1.00
837;DHT22;400;53.550;9.932;2024-02-16T04:31:40;12.80;3.20
837;DHT22;400;53.550;9.932;2024-02-16T04:34:10;12.80;1.00
837;DHT22;400;53.550;9.932;2024-02-16T04:36:37;12.80;1.00
837;DHT22;400;53.550;9.932;2024-02-16T04:39:05;12.80;3.50
837;DHT22;400;53.550;9.932;2024-02-16T04:41:41;12.80;5.40
837;DHT22;400;53.550;9.932;2024-02-16T04:44:08;12.80;3.60
837;DHT22;400;53.550;9.932;2024-02-16T04:46:36;12.80;1.70
837;DHT22;400;53.550;9.932;2024-02-16T04:49:03;12.80;1.00
837;DHT22;400;53.550;9.932;2024-02-16T04:51:30;12.80;1.00
837;DHT22;400;53.550;9.932;2024-02-16T04:53:58;12.80;1.00
837;DHT22;400;53.550;9.932;2024-02-16T04:56:25;12.80;1.00
837;DHT22;400;53.550;9.932;2024-02-16T04:58:53;12.80;1.00
837;DHT22;400;53.550;9.932;2024-02-16T05:01:20;12.80;1.00
837;DHT22;400;53.550;9.932;2024-02-16T05:03:47;12.80;1.00
837;DHT22;400;53.550;9.932;2024-02-16T05:06:14;12.80;1.00
837;DHT22;400;53.550;9.932;2024-02-16T05:08:41;12.80;1.00
837;DHT22;400;53.550;9.932;2024-02-16T05:11:08;12.80;1.00
837;DHT22;400;53.550;9.932;2024-02-16T05:13:36;12.80;1.00
837;DHT22;400;53.550;9.932;2024-02-16T05:16:08;12.70;1.00
837;DHT22;400;53.550;9.932;2024-02-16T05:18:35;12.80;1.00
837;DHT22;400;53.550;9.932;2024-02-16T05:21:05;12.80;1.00
837;DHT22;400;53.550;9.932;2024-02-16T05:23:32;12.70;1.00
837;DHT22;400;53.550;9.932;2024-02-16T05:25:59;12.70;1.00
837;DHT22;400;53.550;9.932;2024-02-16T05:28:26;12.70;1.00
837;DHT22;400;53.550;9.932;2024-02-16T05:30:56;12.70;1.00
837;DHT22;400;53.550;9.932;2024-02-16T05:33:27;12.70;1.00
837;DHT22;400;53.550;9.932;2024-02-16T05:35:55;12.80;1.00
837;DHT22;400;53.550;9.932;2024-02-16T05:38:24;12.70;1.00
837;DHT22;400;53.550;9.932;2024-02-16T05:41:06;12.70;1.00
837;DHT22;400;53.550;9.932;2024-02-16T05:43:33;12.70;1.00
837;DHT22;400;53.550;9.932;2024-02-16T05:46:03;12.70;1.00
837;DHT22;400;53.550;9.932;2024-02-16T05:48:33;12.70;1.00
837;DHT22;400;53.550;9.932;2024-02-16T05:51:03;12.70;1.00
837;DHT22;400;53.550;9.932;2024-02-16T05:53:32;12.70;1.00
837;DHT22;400;53.550;9.932;2024-02-16T05:55:59;12.70;1.00
837;DHT22;400;53.550;9.932;2024-02-16T05:58:26;12.70;1.00
837;DHT22;400;53.550;9.932;2024-02-16T06:00:53;12.70;1.00
837;DHT22;400;53.550;9.932;2024-02-16T06:03:20;12.70;1.00
837;DHT22;400;53.550;9.932;2024-02-16T06:05:50;12.70;1.00
837;DHT22;400;53.550;9.932;2024-02-16T06:08:17;12.70;1.00
837;DHT22;400;53.550;9.932;2024-02-16T06:10:46;12.70;1.00
837;DHT22;400;53.550;9.932;2024-02-16T06:13:17;12.70;1.00
837;DHT22;400;53.550;9.932;2024-02-16T06:15:45;12.60;1.00
837;DHT22;400;53.550;9.932;2024-02-16T06:18:12;12.60;1.00
837;DHT22;400;53.550;9.932;2024-02-16T06:20:40;12.60;1.00
837;DHT22;400;53.550;9.932;2024-02-16T06:23:11;12.60;1.00
837;DHT22;400;53.550;9.932;2024-02-16T06:25:42;12.60;1.00
837;DHT22;400;53.550;9.932;2024-02-16T06:28:09;12.60;1.00
837;DHT22;400;53.550;9.932;2024-02-16T06:30:39;12.60;1.00
837;DHT22;400;53.550;9.932;2024-02-16T06:33:14;12.60;1.00
837;DHT22;400;53.550;9.932;2024-02-16T06:35:42;12.60;1.00
837;DHT22;400;53.550;9.932;2024-02-16T06:38:16;12.60;1.00
837;DHT22;400;53.550;9.932;2024-02-16T06:40:52;12.60;1.00
837;DHT22;400;53.550;9.932;2024-02-16T06:43:25;12.50;1.00
837;DHT22;400;53.550;9.932;2024-02-16T06:45:59;12.50;1.00
837;DHT22;400;53.550;9.932;2024-02-16T06:48:31;12.50;1.00
837;DHT22;400;53.550;9.932;2024-02-16T06:51:07;12.50;1.00
837;DHT22;400;53.550;9.932;2024-02-16T06:53:38;12.50;1.00
837;DHT22;400;53.550;9.932;2024-02-16T06:56:05;12.50;1.00
837;DHT22;400;53.550;9.932;2024-02-16T06:58:32;12.50;1.00
837;DHT22;400;53.550;9.932;2024-02-16T07:00:59;12.50;1.00
837;DHT22;400;53.550;9.932;2024-02-16T07:03:29;12.50;1.00
837;DHT22;400;53.550;9.932;2024-02-16T07:05:56;12.50;1.00
837;DHT22;400;53.550;9.932;2024-02-16T07:08:23;12.50;1.00
837;DHT22;400;53.550;9.932;2024-02-16T07:10:53;12.50;1.00
837;DHT22;400;53.550;9.932;2024-02-16T07:13:24;12.50;1.00
837;DHT22;400;53.550;9.932;2024-02-16T07:15:55;12.50;1.00
837;DHT22;400;53.550;9.932;2024-02-16T07:18:24;12.50;1.00
837;DHT22;400;53.550;9.932;2024-02-16T07:20:51;12.50;1.00
837;DHT22;400;53.550;9.932;2024-02-16T07:23:17;12.50;1.00
837;DHT22;400;53.550;9.932;2024-02-16T07:25:44;12.50;1.00
837;DHT22;400;53.550;9.932;2024-02-16T07:28:13;12.50;1.00
837;DHT22;400;53.550;9.932;2024-02-16T07:30:42;12.60;1.00
837;DHT22;400;53.550;9.932;2024-02-16T07:33:17;12.60;1.00
837;DHT22;400;53.550;9.932;2024-02-16T07:35:49;12.60;1.00
837;DHT22;400;53.550;9.932;2024-02-16T07:38:20;12.60;1.00
837;DHT22;400;53.550;9.932;2024-02-16T07:40:48;12.60;1.00
837;DHT22;400;53.550;9.932;2024-02-16T07:43:20;12.60;1.00
837;DHT22;400;53.550;9.932;2024-02-16T07:45:49;12.60;1.00
837;DHT22;400;53.550;9.932;2024-02-16T07:48:19;12.60;1.00
837;DHT22;400;53.550;9.932;2024-02-16T07:50:47;12.70;1.00
837;DHT22;400;53.550;9.932;2024-02-16T07:53:16;12.60;1.00
837;DHT22;400;53.550;9.932;2024-02-16T07:55:47;12.70;1.00
837;DHT22;400;53.550;9.932;2024-02-16T07:58:15;12.70;1.00
837;DHT22;400;53.550;9.932;2024-02-16T08:00:47;12.70;1.00
837;DHT22;400;53.550;9.932;2024-02-16T08:03:14;12.70;1.00
837;DHT22;400;53.550;9.932;2024-02-16T08:05:42;12.70;1.00
837;DHT22;400;53.550;9.932;2024-02-16T08:08:09;12.80;1.00
837;DHT22;400;53.550;9.932;2024-02-16T08:10:39;12.80;1.00
837;DHT22;400;53.550;9.932;2024-02-16T08:13:09;12.80;1.00
837;DHT22;400;53.550;9.932;2024-02-16T08:15:44;12.80;1.00
837;DHT22;400;53.550;9.932;2024-02-16T08:18:21;12.80;1.00
837;DHT22;400;53.550;9.932;2024-02-16T08:20:52;12.80;1.00
837;DHT22;400;53.550;9.932;2024-02-16T08:23:19;12.80;1.00
837;DHT22;400;53.550;9.932;2024-02-16T08:25:48;12.80;1.00
837;DHT22;400;53.550;9.932;2024-02-16T08:28:15;12.90;1.00
837;DHT22;400;53.550;9.932;2024-02-16T08:30:43;12.90;1.00
837;DHT22;400;53.550;9.932;2024-02-16T08:33:10;12.90;1.00
837;DHT22;400;53.550;9.932;2024-02-16T08:35:39;13.00;1.00
837;DHT22;400;53.550;9.932;2024-02-16T08:38:06;13.00;1.00
837;DHT22;400;53.550;9.932;2024-02-16T08:40:35;13.00;1.00
837;DHT22;400;53.550;9.932;2024-02-16T08:43:03;13.00;1.00
837;DHT22;400;53.550;9.932;2024-02-16T08:45:30;13.00;1.00
837;DHT22;400;53.550;9.932;2024-02-16T08:47:57;13.00;1.00
837;DHT22;400;53.550;9.932;2024-02-16T08:50:24;13.00;1.00
837;DHT22;400;53.550;9.932;2024-02-16T08:52:52;13.00;1.00
837;DHT22;400;53.550;9.932;2024-02-16T08:55:20;13.00;1.00
837;DHT22;400;53.550;9.932;2024-02-16T08:57:47;13.00;1.00
837;DHT22;400;53.550;9.932;2024-02-16T09:00:15;13.00;1.00
837;DHT22;400;53.550;9.932;2024-02-16T09:02:42;13.00;1.00
837;DHT22;400;53.550;9.932;2024-02-16T09:05:10;13.10;1.00
837;DHT22;400;53.550;9.932;2024-02-16T09:07:37;13.10;1.00
837;DHT22;400;53.550;9.932;2024-02-16T09:10:06;13.10;1.00
837;DHT22;400;53.550;9.932;2024-02-16T09:12:35;13.10;1.00
837;DHT22;400;53.550;9.932;2024-02-16T09:15:03;13.10;1.00
837;DHT22;400;53.550;9.932;2024-02-16T09:17:32;13.10;1.00
837;DHT22;400;53.550;9.932;2024-02-16T09:20:02;13.10;1.00
837;DHT22;400;53.550;9.932;2024-02-16T09:22:30;13.20;1.00
837;DHT22;400;53.550;9.932;2024-02-16T09:24:57;13.20;1.00
837;DHT22;400;53.550;9.932;2024-02-16T09:27:26;13.20;1.00
837;DHT22;400;53.550;9.932;2024-02-16T09:29:57;13.20;1.00
837;DHT22;400;53.550;9.932;2024-02-16T09:32:30;13.30;1.00
837;DHT22;400;53.550;9.932;2024-02-16T09:35:01;13.20;1.00
837;DHT22;400;53.550;9.932;2024-02-16T09:37:30;13.30;1.00
837;DHT22;400;53.550;9.932;2024-02-16T09:40:00;13.30;1.00
837;DHT22;400;53.550;9.932;2024-02-16T09:42:39;13.40;1.00
837;DHT22;400;53.550;9.932;2024-02-16T09:45:11;13.40;1.00
837;DHT22;400;53.550;9.932;2024-02-16T09:47:42;13.40;1.00
837;DHT22;400;53.550;9.932;2024-02-16T09:50:12;13.40;1.00
837;DHT22;400;53.550;9.932;2024-02-16T09:52:41;13.40;1.00
837;DHT22;400;53.550;9.932;2024-02-16T09:55:11;13.50;1.00
837;DHT22;400;53.550;9.932;2024-02-16T09:57:40;13.50;1.00
837;DHT22;400;53.550;9.932;2024-02-16T10:00:13;13.50;1.00
837;DHT22;400;53.550;9.932;2024-02-16T10:02:40;13.50;1.00
837;DHT22;400;53.550;9.932;2024-02-16T10:05:14;13.60;1.00
837;DHT22;400;53.550;9.932;2024-02-16T10:07:47;13.60;1.00
837;DHT22;400;53.550;9.932;2024-02-16T10:10:22;13.70;1.00
837;DHT22;400;53.550;9.932;2024-02-16T10:13:03;13.70;1.00
837;DHT22;400;53.550;9.932;2024-02-16T10:15:31;13.70;1.00
837;DHT22;400;53.550;9.932;2024-02-16T10:17:59;13.70;1.00
837;DHT22;400;53.550;9.932;2024-02-16T10:20:28;13.80;1.00
837;DHT22;400;53.550;9.932;2024-02-16T10:23:10;13.80;1.00
837;DHT22;400;53.550;9.932;2024-02-16T10:25:39;13.90;1.00
837;DHT22;400;53.550;9.932;2024-02-16T10:28:10;13.90;1.00
837;DHT22;400;53.550;9.932;2024-02-16T10:30:42;14.00;1.00
837;DHT22;400;53.550;9.932;2024-02-16T10:33:14;14.00;1.00
837;DHT22;400;53.550;9.932;2024-02-16T10:35:43;14.00;1.00
837;DHT22;400;53.550;9.932;2024-02-16T10:38:12;14.10;1.00
837;DHT22;400;53.550;9.932;2024-02-16T10:40:40;14.10;1.00
837;DHT22;400;53.550;9.932;2024-02-16T10:43:09;14.10;1.00
837;DHT22;400;53.550;9.932;2024-02-16T10:45:37;14.10;1.00
837;DHT22;400;53.550;9.932;2024-02-16T10:48:07;14.10;1.00
837;DHT22;400;53.550;9.932;2024-02-16T10:50:38;14.10;1.00
837;DHT22;400;53.550;9.932;2024-02-16T10:53:12;14.20;1.00
837;DHT22;400;53.550;9.932;2024-02-16T10:55:43;14.20;1.00
837;DHT22;400;53.550;9.932;2024-02-16T10:58:16;14.30;1.00
837;DHT22;400;53.550;9.932;2024-02-16T11:00:49;14.30;1.00
837;DHT22;400;53.550;9.932;2024-02-16T11:03:17;14.30;1.00
837;DHT22;400;53.550;9.932;2024-02-16T11:05:48;14.30;1.00
837;DHT22;400;53.550;9.932;2024-02-16T11:08:16;14.40;1.00
837;DHT22;400;53.550;9.932;2024-02-16T11:10:54;14.40;1.00
837;DHT22;400;53.550;9.932;2024-02-16T11:13:24;14.50;1.00
837;DHT22;400;53.550;9.932;2024-02-16T11:16:02;14.50;1.00
837;DHT22;400;53.550;9.932;2024-02-16T11:18:31;14.50;1.00
837;DHT22;400;53.550;9.932;2024-02-16T11:21:02;14.60;1.00
837;DHT22;400;53.550;9.932;2024-02-16T11:23:30;14.60;1.00
837;DHT22;400;53.550;9.932;2024-02-16T11:26:00;14.60;1.00
837;DHT22;400;53.550;9.932;2024-02-16T11:28:31;14.70;1.00
837;DHT22;400;53.550;9.932;2024-02-16T11:31:00;14.60;1.00
837;DHT22;400;53.550;9.932;2024-02-16T11:33:27;14.70;1.00
837;DHT22;400;53.550;9.932;2024-02-16T11:35:55;14.70;1.00
837;DHT22;400;53.550;9.932;2024-02-16T11:38:26;14.70;1.00
837;DHT22;400;53.550;9.932;2024-02-16T11:40:57;14.70;1.00
837;DHT22;400;53.550;9.932;2024-02-16T11:43:25;14.70;1.00
837;DHT22;400;53.550;9.932;2024-02-16T11:46:10;14.80;1.00
837;DHT22;400;53.550;9.932;2024-02-16T11:48:42;14.80;1.00
837;DHT22;400;53.550;9.932;2024-02-16T11:51:16;14.80;1.00
837;DHT22;400;53.550;9.932;2024-02-16T11:53:45;14.80;1.00
837;DHT22;400;53.550;9.932;2024-02-16T11:56:22;14.80;1.00
837;DHT22;400;53.550;9.932;2024-02-16T11:58:56;14.90;1.00
837;DHT22;400;53.550;9.932;2024-02-16T12:01:30;14.90;1.00
837;DHT22;400;53.550;9.932;2024-02-16T12:04:00;14.90;1.00
837;DHT22;400;53.550;9.932;2024-02-16T12:06:27;14.90;1.00
837;DHT22;400;53.550;9.932;2024-02-16T12:08:58;15.00;1.00
837;DHT22;400;53.550;9.932;2024-02-16T12:11:29;15.00;1.00
837;DHT22;400;53.550;9.932;2024-02-16T12:13:59;15.00;1.00
837;DHT22;400;53.550;9.932;2024-02-16T12:16:31;15.00;1.00
837;DHT22;400;53.550;9.932;2024-02-16T12:19:03;15.00;1.00
837;DHT22;400;53.550;9.932;2024-02-16T12:21:30;15.00;1.00
837;DHT22;400;53.550;9.932;2024-02-16T12:23:57;15.10;1.00
837;DHT22;400;53.550;9.932;2024-02-16T12:26:26;15.10;1.00
837;DHT22;400;53.550;9.932;2024-02-16T12:28:54;15.10;1.00
837;DHT22;400;53.550;9.932;2024-02-16T12:31:23;15.10;1.00
837;DHT22;400;53.550;9.932;2024-02-16T12:33:53;15.10;1.00
837;DHT22;400;53.550;9.932;2024-02-16T12:36:20;15.20;1.00
837;DHT22;400;53.550;9.932;2024-02-16T12:38:48;15.20;1.00
837;DHT22;400;53.550;9.932;2024-02-16T12:41:16;15.20;1.00
837;DHT22;400;53.550;9.932;2024-02-16T12:43:44;15.20;1.00
837;DHT22;400;53.550;9.932;2024-02-16T12:46:11;15.20;1.00
837;DHT22;400;53.550;9.932;2024-02-16T12:48:38;15.20;1.00
837;DHT22;400;53.550;9.932;2024-02-16T12:51:09;15.20;1.00
837;DHT22;400;53.550;9.932;2024-02-16T12:53:36;15.20;1.00
837;DHT22;400;53.550;9.932;2024-02-16T12:56:06;15.20;1.00
837;DHT22;400;53.550;9.932;2024-02-16T12:58:33;15.20;1.00
837;DHT22;400;53.550;9.932;2024-02-16T13:01:01;15.20;1.00
837;DHT22;400;53.550;9.932;2024-02-16T13:03:30;15.20;1.00
837;DHT22;400;53.550;9.932;2024-02-16T13:05:57;15.20;1.00
837;DHT22;400;53.550;9.932;2024-02-16T13:08:30;15.20;1.00
837;DHT22;400;53.550;9.932;2024-02-16T13:10:59;15.20;1.00
837;DHT22;400;53.550;9.932;2024-02-16T13:13:29;15.20;1.00
837;DHT22;400;53.550;9.932;2024-02-16T13:15:56;15.20;1.00
837;DHT22;400;53.550;9.932;2024-02-16T13:18:24;15.20;1.00
837;DHT22;400;53.550;9.932;2024-02-16T13:20:51;15.30;1.00
837;DHT22;400;53.550;9.932;2024-02-16T13:23:21;15.30;1.00
837;DHT22;400;53.550;9.932;2024-02-16T13:25:56;15.30;1.00
837;DHT22;400;53.550;9.932;2024-02-16T13:28:29;15.30;1.00
837;DHT22;400;53.550;9.932;2024-02-16T13:30:57;15.30;1.00
837;DHT22;400;53.550;9.932;2024-02-16T13:33:24;15.30;1.00
837;DHT22;400;53.550;9.932;2024-02-16T13:35:50;15.30;1.00
837;DHT22;400;53.550;9.932;2024-02-16T13:38:20;15.40;1.00
837;DHT22;400;53.550;9.932;2024-02-16T13:40:59;15.40;1.00
837;DHT22;400;53.550;9.932;2024-02-16T13:43:51;15.30;1.00
837;DHT22;400;53.550;9.932;2024-02-16T13:46:20;15.30;1.00
837;DHT22;400;53.550;9.932;2024-02-16T13:49:13;15.30;1.00
837;DHT22;400;53.550;9.932;2024-02-16T13:52:13;15.30;1.00
837;DHT22;400;53.550;9.932;2024-02-16T13:54:42;15.30;1.00
837;DHT22;400;53.550;9.932;2024-02-16T13:57:13;15.30;1.00
837;DHT22;400;53.550;9.932;2024-02-16T13:59:42;15.30;1.00
837;DHT22;400;53.550;9.932;2024-02-16T14:02:10;15.30;1.00
837;DHT22;400;53.550;9.932;2024-02-16T14:04:42;15.30;1.00
837;DHT22;400;53.550;9.932;2024-02-16T14:07:14;15.30;1.00
837;DHT22;400;53.550;9.932;2024-02-16T14:09:44;15.30;1.00
837;DHT22;400;53.550;9.932;2024-02-16T14:12:23;15.30;1.00
837;DHT22;400;53.550;9.932;2024-02-16T14:14:53;15.30;1.00
837;DHT22;400;53.550;9.932;2024-02-16T14:17:26;15.20;1.00
837;DHT22;400;53.550;9.932;2024-02-16T14:20:00;15.30;1.00
837;DHT22;400;53.550;9.932;2024-02-16T14:22:38;15.30;1.00
837;DHT22;400;53.550;9.932;2024-02-16T14:25:10;15.30;1.00
837;DHT22;400;53.550;9.932;2024-02-16T14:27:40;15.30;1.00
837;DHT22;400;53.550;9.932;2024-02-16T14:30:08;15.30;1.00
837;DHT22;400;53.550;9.932;2024-02-16T14:32:35;15.30;1.00
837;DHT22;400;53.550;9.932;2024-02-16T14:35:02;15.20;1.00
837;DHT22;400;53.550;9.932;2024-02-16T14:37:33;15.30;1.00
837;DHT22;400;53.550;9.932;2024-02-16T14:40:00;15.20;1.00
837;DHT22;400;53.550;9.932;2024-02-16T14:42:33;15.20;1.00
837;DHT22;400;53.550;9.932;2024-02-16T14:45:22;15.20;1.00
837;DHT22;400;53.550;9.932;2024-02-16T14:47:51;15.10;1.00
837;DHT22;400;53.550;9.932;2024-02-16T14:50:28;15.10;1.00
837;DHT22;400;53.550;9.932;2024-02-16T14:53:00;15.10;1.00
837;DHT22;400;53.550;9.932;2024-02-16T14:55:30;15.00;1.00
837;DHT22;400;53.550;9.932;2024-02-16T14:57:57;15.00;1.00
837;DHT22;400;53.550;9.932;2024-02-16T15:00:25;15.00;1.00
837;DHT22;400;53.550;9.932;2024-02-16T15:02:58;14.90;1.00
837;DHT22;400;53.550;9.932;2024-02-16T15:05:28;14.80;1.00
837;DHT22;400;53.550;9.932;2024-02-16T15:07:59;14.80;1.00
837;DHT22;400;53.550;9.932;2024-02-16T15:10:31;14.70;1.00
837;DHT22;400;53.550;9.932;2024-02-16T15:12:58;14.70;1.00
837;DHT22;400;53.550;9.932;2024-02-16T15:15:28;14.70;1.00
837;DHT22;400;53.550;9.932;2024-02-16T15:17:57;14.60;1.00
837;DHT22;400;53.550;9.932;2024-02-16T15:20:26;14.70;1.00
837;DHT22;400;53.550;9.932;2024-02-16T15:22:54;14.70;1.00
837;DHT22;400;53.550;9.932;2024-02-16T15:25:21;14.70;1.00
837;DHT22;400;53.550;9.932;2024-02-16T15:27:48;14.70;1.00
837;DHT22;400;53.550;9.932;2024-02-16T15:30:17;14.70;1.00
837;DHT22;400;53.550;9.932;2024-02-16T15:32:47;14.60;1.00
837;DHT22;400;53.550;9.932;2024-02-16T15:35:17;14.50;1.00
837;DHT22;400;53.550;9.932;2024-02-16T15:37:44;14.50;1.00
837;DHT22;400;53.550;9.932;2024-02-16T15:40:13;14.40;1.00
837;DHT22;400;53.550;9.932;2024-02-16T15:42:58;14.40;1.00
837;DHT22;400;53.550;9.932;2024-02-16T15:45:26;14.40;1.00
837;DHT22;400;53.550;9.932;2024-02-16T15:47:55;14.40;1.00
837;DHT22;400;53.550;9.932;2024-02-16T15:50:25;14.40;1.00
837;DHT22;400;53.550;9.932;2024-02-16T15:52:52;14.30;1.00
837;DHT22;400;53.550;9.932;2024-02-16T15:55:19;14.30;1.00
837;DHT22;400;53.550;9.932;2024-02-16T15:57:47;14.40;1.00
837;DHT22;400;53.550;9.932;2024-02-16T16:00:15;14.30;1.00
837;DHT22;400;53.550;9.932;2024-02-16T16:02:42;14.40;1.00
837;DHT22;400;53.550;9.932;2024-02-16T16:05:10;14.20;1.00
837;DHT22;400;53.550;9.932;2024-02-16T16:07:37;14.10;1.00
837;DHT22;400;53.550;9.932;2024-02-16T16:10:06;14.00;1.00
837;DHT22;400;53.550;9.932;2024-02-16T16:12:35;14.00;1.00
837;DHT22;400;53.550;9.932;2024-02-16T16:15:02;13.80;1.00
837;DHT22;400;53.550;9.932;2024-02-16T16:17:29;13.80;1.00
837;DHT22;400;53.550;9.932;2024-02-16T16:19:56;13.70;1.00
837;DHT22;400;53.550;9.932;2024-02-16T16:22:25;13.60;1.00
837;DHT22;400;53.550;9.932;2024-02-16T16:24:52;13.60;1.00
837;DHT22;400;53.550;9.932;2024-02-16T16:27:19;13.50;1.00
837;DHT22;400;53.550;9.932;2024-02-16T16:29:46;13.40;28.90
837;DHT22;400;53.550;9.932;2024-02-16T16:32:16;13.40;59.70
837;DHT22;400;53.550;9.932;2024-02-16T16:34:50;13.10;99.90
837;DHT22;400;53.550;9.932;2024-02-16T16:37:22;13.10;99.90
837;DHT22;400;53.550;9.932;2024-02-16T16:39:53;13.10;99.90
837;DHT22;400;53.550;9.932;2024-02-16T16:42:20;13.10;99.90
837;DHT22;400;53.550;9.932;2024-02-16T16:44:47;13.00;99.90
837;DHT22;400;53.550;9.932;2024-02-16T16:47:14;13.00;99.90
837;DHT22;400;53.550;9.932;2024-02-16T16:49:41;13.00;99.90
837;DHT22;400;53.550;9.932;2024-02-16T16:52:09;13.00;99.90
837;DHT22;400;53.550;9.932;2024-02-16T16:54:38;13.00;99.90
837;DHT22;400;53.550;9.932;2024-02-16T16:57:15;12.90;99.90
837;DHT22;400;53.550;9.932;2024-02-16T16:59:45;12.90;99.90